createdAt,value
2022-10-01T00:01:34.681Z,69.80
2022-10-01T00:06:05.793Z,71.13
2022-10-01T00:10:22.395Z,68.78
2022-10-01T00:14:39.341Z,68.55
2022-10-01T00:18:55.580Z,69.33
2022-10-01T00:23:15.860Z,68.94
2022-10-01T00:27:32.061Z,67.98
2022-10-01T00:31:48.234Z,68.39
2022-10-01T00:36:05.723Z,68.62
2022-10-01T00:40:22.651Z,68.28
2022-10-01T00:44:38.789Z,70.35
2022-10-01T00:48:59.914Z,70.56
2022-10-01T00:53:16.942Z,70.22
2022-10-01T00:57:33.685Z,70.62
2022-10-01T01:01:49.843Z,69.75
2022-10-01T01:06:08.283Z,71.76
2022-10-01T01:10:30.054Z,70.31
2022-10-01T01:15:12.884Z,69.56
2022-10-01T01:19:31.653Z,69.04
2022-10-01T01:24:05.794Z,68.39
2022-10-01T01:28:31.978Z,69.21
2022-10-01T01:32:55.193Z,68.49
2022-10-01T01:37:15.958Z,68.54
2022-10-01T01:41:36.101Z,69.17
2022-10-01T01:45:55.244Z,69.14
2022-10-01T01:50:14.009Z,69.42
2022-10-01T01:54:30.602Z,69.62
2022-10-01T01:58:47.058Z,69.62
2022-10-01T02:03:03.621Z,69.80
2022-10-01T02:07:22.602Z,69.87
2022-10-01T02:11:49.145Z,70.67
2022-10-01T02:16:19.203Z,70.23
2022-10-01T02:20:46.048Z,69.79
2022-10-01T02:25:05.568Z,70.77
2022-10-01T02:29:22.765Z,69.47
2022-10-01T02:33:39.800Z,69.75
2022-10-01T02:37:56.822Z,69.08
2022-10-01T02:42:14.652Z,69.03
2022-10-01T02:46:33.474Z,69.30
2022-10-01T02:50:52.411Z,69.89
2022-10-01T02:55:14.881Z,69.70
2022-10-01T02:59:30.893Z,71.44
2022-10-01T03:03:46.925Z,70.22
2022-10-01T03:08:03.312Z,69.72
2022-10-01T03:12:19.474Z,70.30
2022-10-01T03:16:35.641Z,69.28
2022-10-01T03:20:51.640Z,69.66
2022-10-01T03:25:08.092Z,70.44
2022-10-01T03:29:25.257Z,69.64
2022-10-01T03:33:41.359Z,70.49
2022-10-01T03:37:57.458Z,70.00
2022-10-01T03:42:13.511Z,69.65
2022-10-01T03:46:29.759Z,69.76
2022-10-01T03:50:59.773Z,69.98
2022-10-01T03:55:15.949Z,70.06
2022-10-01T03:59:32.065Z,70.79
2022-10-01T04:03:49.320Z,70.80
2022-10-01T04:08:05.583Z,69.20
2022-10-01T04:12:21.687Z,69.33
2022-10-01T04:16:37.755Z,69.86
2022-10-01T04:20:53.849Z,69.37
2022-10-01T04:25:11.070Z,69.28
2022-10-01T04:29:27.165Z,69.15
2022-10-01T04:33:43.269Z,68.92
2022-10-01T04:38:08.012Z,69.22
2022-10-01T04:42:24.128Z,69.49
2022-10-01T04:46:40.179Z,69.37
2022-10-01T04:50:56.258Z,69.80
2022-10-01T04:55:12.761Z,69.47
2022-10-01T04:59:28.828Z,69.60
2022-10-01T05:03:44.956Z,69.81
2022-10-01T05:08:01.356Z,69.44
2022-10-01T05:12:20.113Z,69.50
2022-10-01T05:16:39.832Z,69.42
2022-10-01T05:20:55.911Z,69.63
2022-10-01T05:25:12.042Z,70.92
2022-10-01T05:29:28.189Z,70.11
2022-10-01T05:33:44.230Z,70.48
2022-10-01T05:38:02.866Z,71.08
2022-10-01T05:42:19.008Z,71.03
2022-10-01T05:46:35.655Z,71.47
2022-10-01T05:50:51.978Z,71.06
2022-10-01T05:55:08.609Z,71.21
2022-10-01T05:59:28.451Z,71.41
2022-10-01T06:03:50.889Z,70.93
2022-10-01T06:08:08.677Z,71.30
2022-10-01T06:12:25.408Z,71.16
2022-10-01T06:16:41.471Z,73.27
2022-10-01T06:20:59.856Z,73.37
2022-10-01T06:25:15.939Z,72.13
2022-10-01T06:29:31.967Z,73.26
2022-10-01T06:33:48.129Z,74.23
2022-10-01T06:38:04.851Z,72.15
2022-10-01T06:42:20.969Z,71.37
2022-10-01T06:46:37.472Z,69.99
2022-10-01T06:50:55.750Z,69.76
2022-10-01T06:55:16.310Z,69.21
2022-10-01T06:59:33.946Z,70.92
2022-10-01T07:03:50.700Z,69.40
2022-10-01T07:08:07.485Z,69.17
2022-10-01T07:12:23.691Z,68.67
2022-10-01T07:16:39.959Z,68.95
2022-10-01T07:20:58.051Z,69.11
2022-10-01T07:25:15.095Z,69.49
2022-10-01T07:29:31.769Z,68.92
2022-10-01T07:33:48.458Z,69.01
2022-10-01T07:38:08.279Z,68.58
2022-10-01T07:42:24.301Z,70.08
2022-10-01T07:46:40.581Z,69.68
2022-10-01T07:50:58.001Z,69.25
2022-10-01T07:55:14.825Z,68.60
2022-10-01T07:59:31.456Z,69.06
2022-10-01T08:03:49.888Z,69.88
2022-10-01T08:08:09.093Z,70.47
2022-10-01T08:12:30.498Z,69.76
2022-10-01T08:16:47.417Z,69.66
2022-10-01T08:21:04.460Z,69.48
2022-10-01T08:25:20.635Z,70.11
2022-10-01T08:29:36.764Z,70.06
2022-10-01T08:33:53.010Z,69.02
2022-10-01T08:38:10.052Z,69.52
2022-10-01T08:43:03.320Z,69.90
2022-10-01T08:47:35.080Z,71.21
2022-10-01T08:52:03.733Z,70.06
2022-10-01T08:56:32.166Z,70.19
2022-10-01T09:00:49.565Z,70.19
2022-10-01T09:05:19.367Z,69.84
2022-10-01T09:09:47.997Z,69.69
2022-10-01T09:14:33.666Z,69.61
2022-10-01T09:18:55.629Z,69.19
2022-10-01T09:23:24.355Z,68.98
2022-10-01T09:27:41.031Z,67.78
2022-10-01T09:31:57.446Z,68.00
2022-10-01T09:36:33.540Z,66.42
2022-10-01T09:40:55.666Z,65.97
2022-10-01T09:45:15.829Z,65.16
2022-10-01T09:49:35.487Z,64.54
2022-10-01T09:54:14.348Z,63.67
2022-10-01T09:58:31.346Z,63.00
2022-10-01T10:02:52.364Z,61.48
2022-10-01T10:07:08.578Z,60.57
2022-10-01T10:11:34.349Z,59.63
2022-10-01T10:15:52.868Z,60.24
2022-10-01T10:20:21.308Z,62.13
2022-10-01T10:24:37.623Z,62.95
2022-10-01T10:28:53.864Z,62.65
2022-10-01T10:33:14.368Z,62.08
2022-10-01T10:37:34.578Z,62.21
2022-10-01T10:41:52.163Z,61.88
2022-10-01T10:46:09.862Z,60.89
2022-10-01T10:50:31.331Z,62.10
2022-10-01T10:54:54.702Z,61.21
2022-10-01T10:59:12.564Z,60.21
2022-10-01T11:03:31.351Z,62.07
2022-10-01T11:07:49.485Z,63.14
2022-10-01T11:12:35.558Z,64.56
2022-10-01T11:17:25.286Z,62.22
2022-10-01T11:21:50.401Z,61.59
2022-10-01T11:26:41.784Z,62.41
2022-10-01T11:31:37.199Z,64.15
2022-10-01T11:36:29.403Z,64.60
2022-10-01T11:40:54.404Z,63.03
2022-10-01T11:45:21.588Z,64.62
2022-10-01T11:49:50.839Z,64.84
2022-10-01T11:54:11.944Z,64.73
2022-10-01T11:59:03.168Z,64.79
2022-10-01T12:03:21.652Z,64.82
2022-10-01T12:07:40.510Z,64.60
2022-10-01T12:12:10.271Z,64.51
2022-10-01T12:16:39.185Z,65.56
2022-10-01T12:20:57.756Z,64.78
2022-10-01T12:25:14.433Z,65.33
2022-10-01T12:30:06.953Z,65.73
2022-10-01T12:34:37.079Z,65.73
2022-10-01T12:39:08.853Z,65.74
2022-10-01T12:43:50.857Z,65.57
2022-10-01T12:48:22.626Z,66.13
2022-10-01T12:53:18.475Z,66.81
2022-10-01T12:57:54.020Z,66.23
2022-10-01T13:02:34.477Z,67.83
2022-10-01T13:07:23.393Z,67.45
2022-10-01T13:12:03.351Z,68.74
2022-10-01T13:16:44.745Z,71.92
2022-10-01T13:21:27.294Z,70.63
2022-10-01T13:26:01.818Z,70.10
2022-10-01T13:30:25.647Z,69.83
2022-10-01T13:34:46.352Z,69.68
2022-10-01T13:39:04.261Z,69.70
2022-10-01T13:43:24.397Z,71.36
2022-10-01T13:47:41.347Z,69.89
2022-10-01T13:51:58.465Z,69.84
2022-10-01T13:56:28.495Z,71.81
2022-10-01T14:00:54.242Z,71.05
2022-10-01T14:05:43.319Z,69.85
2022-10-01T14:10:01.021Z,73.25
2022-10-01T14:14:43.260Z,72.76
2022-10-01T14:18:59.366Z,72.94
2022-10-01T14:23:21.652Z,73.82
2022-10-01T14:27:40.792Z,71.40
2022-10-01T14:32:37.073Z,72.05
2022-10-01T14:36:54.627Z,71.78
2022-10-01T14:41:23.690Z,71.30
2022-10-01T14:46:00.737Z,72.45
2022-10-01T14:50:20.926Z,75.10
2022-10-01T14:54:58.733Z,72.99
2022-10-01T14:59:32.435Z,72.44
2022-10-01T15:03:49.787Z,72.28
2022-10-01T15:08:24.424Z,72.91
2022-10-01T15:12:41.767Z,71.76
2022-10-01T15:17:02.203Z,72.21
2022-10-01T15:21:40.280Z,71.22
2022-10-01T15:25:58.348Z,72.34
2022-10-01T15:30:18.532Z,71.75
2022-10-01T15:34:35.325Z,71.75
2022-10-01T15:38:51.784Z,71.76
2022-10-01T15:43:28.503Z,71.08
2022-10-01T15:47:52.447Z,70.08
2022-10-01T15:52:33.742Z,69.58
2022-10-01T15:56:49.833Z,69.06
2022-10-01T16:01:22.162Z,69.04
2022-10-01T16:05:46.004Z,67.06
2022-10-01T16:10:28.298Z,68.17
2022-10-01T16:15:05.010Z,68.50
2022-10-01T16:19:31.543Z,68.68
2022-10-01T16:23:53.288Z,69.26
2022-10-01T16:28:25.097Z,69.89
2022-10-01T16:32:41.193Z,71.24
2022-10-01T16:36:58.048Z,70.68
2022-10-01T16:41:20.063Z,68.65
2022-10-01T16:45:39.024Z,69.67
2022-10-01T16:49:55.116Z,69.89
2022-10-01T16:54:26.743Z,70.75
2022-10-01T16:58:46.301Z,69.99
2022-10-01T17:03:02.817Z,71.43
2022-10-01T17:07:18.867Z,71.51
2022-10-01T17:11:35.926Z,69.57
2022-10-01T17:15:55.054Z,70.49
2022-10-01T17:20:11.361Z,70.76
2022-10-01T17:24:27.620Z,70.33
2022-10-01T17:28:43.880Z,70.52
2022-10-01T17:33:00.943Z,70.47
2022-10-01T17:37:17.176Z,70.42
2022-10-01T17:41:33.418Z,70.73
2022-10-01T17:45:57.370Z,71.30
2022-10-01T17:50:14.637Z,70.99
2022-10-01T17:54:30.781Z,71.59
2022-10-01T17:58:48.675Z,72.18
2022-10-01T18:03:04.991Z,72.20
2022-10-01T18:07:21.171Z,72.88
2022-10-01T18:11:38.525Z,73.73
2022-10-01T18:16:18.931Z,73.49
2022-10-01T18:20:40.778Z,73.67
2022-10-01T18:24:58.242Z,73.49
2022-10-01T18:29:32.669Z,74.75
2022-10-01T18:33:55.251Z,72.76
2022-10-01T18:38:29.486Z,73.73
2022-10-01T18:43:13.099Z,72.59
2022-10-01T18:48:07.596Z,73.27
2022-10-01T18:52:29.842Z,74.42
2022-10-01T18:57:00.598Z,74.12
2022-10-01T19:01:36.002Z,76.60
2022-10-01T19:06:10.019Z,74.90
2022-10-01T19:10:40.247Z,75.79
2022-10-01T19:15:14.285Z,74.56
2022-10-01T19:19:54.592Z,74.16
2022-10-01T19:24:29.241Z,74.75
2022-10-01T19:29:02.490Z,73.76
2022-10-01T19:33:20.591Z,72.93
2022-10-01T19:37:43.696Z,75.45
2022-10-01T19:42:27.086Z,74.42
2022-10-01T19:46:47.617Z,73.35
2022-10-01T19:51:12.516Z,73.75
2022-10-01T19:55:37.754Z,71.68
2022-10-01T20:00:04.620Z,73.05
2022-10-01T20:04:25.360Z,71.69
2022-10-01T20:09:10.968Z,72.20
2022-10-01T20:13:51.665Z,71.87
2022-10-01T20:18:27.659Z,71.85
2022-10-01T20:23:19.992Z,71.83
2022-10-01T20:27:56.789Z,71.59
2022-10-01T20:32:36.789Z,70.84
2022-10-01T20:37:14.495Z,71.03
2022-10-01T20:41:32.795Z,70.75
2022-10-01T20:45:51.621Z,71.14
2022-10-01T20:50:14.979Z,70.93
2022-10-01T20:54:38.807Z,70.75
2022-10-01T20:58:59.505Z,72.08
2022-10-01T21:03:41.904Z,72.21
2022-10-01T21:08:06.983Z,71.46
2022-10-01T21:12:29.261Z,71.81
2022-10-01T21:16:46.409Z,70.96
2022-10-01T21:21:02.727Z,71.22
2022-10-01T21:25:31.177Z,73.21
2022-10-01T21:30:05.162Z,70.48
2022-10-01T21:34:27.180Z,70.29
2022-10-01T21:39:15.727Z,70.53
2022-10-01T21:43:34.758Z,70.09
2022-10-01T21:47:50.894Z,70.85
2022-10-01T21:52:18.893Z,68.88
2022-10-01T21:56:41.107Z,67.65
2022-10-01T22:01:20.565Z,68.19
2022-10-01T22:05:46.205Z,68.28
2022-10-01T22:10:27.910Z,68.45
2022-10-01T22:14:45.246Z,69.43
2022-10-01T22:19:26.078Z,68.60
2022-10-01T22:23:48.030Z,69.86
2022-10-01T22:28:07.709Z,69.80
2022-10-01T22:32:26.126Z,69.25
2022-10-01T22:36:51.244Z,67.89
2022-10-01T22:41:27.579Z,68.30
2022-10-01T22:45:55.570Z,70.26
2022-10-01T22:50:17.558Z,72.18
2022-10-01T22:55:03.234Z,71.58
2022-10-01T22:59:35.581Z,73.04
2022-10-01T23:04:04.403Z,71.31
2022-10-01T23:08:34.795Z,71.82
2022-10-01T23:12:50.943Z,72.18
2022-10-01T23:17:30.188Z,72.82
2022-10-01T23:22:21.546Z,74.03
2022-10-01T23:26:43.521Z,74.26
2022-10-01T23:31:26.151Z,73.39
2022-10-01T23:35:46.510Z,72.54
2022-10-01T23:40:08.230Z,73.68
2022-10-01T23:44:29.457Z,72.38
2022-10-01T23:49:07.258Z,71.58
2022-10-01T23:53:54.983Z,70.55
2022-10-01T23:58:13.532Z,70.11
